Flight Track Log - Related Links

Times and Time Zones

All times are in EDT time to prevent confusion due to time zone crossing. See the N32LJ flight status page for this flight to view local times or setup timezone preferences in your user account.

Time Position Orientation Groundspeed Altitude Reporting Facility
EDT Latitude Longitude Course Direction KTS MPH feet Rate Location/Type
Sun 06:35:24 PM 30.3361 -87.7106 12° North 187 215 2,800  Level Jacksonville Center
Sun 06:36:37 PM 30.4119 -87.6925 12° North 247 284 3,000 812 Climbing Jacksonville Center
Sun 06:37:37 PM 30.4667 -87.6786 12° North 252 290 4,600 1,600 Climbing Jacksonville Center
Sun 06:38:37 PM 30.5156 -87.6617 17° North 223 257 6,200 1,600 Climbing Jacksonville Center
Sun 06:39:37 PM 30.5683 -87.6425 17° North 204 235 7,800 1,535 Climbing Jacksonville Center
Sun 06:40:46 PM 30.6294 -87.6236 15° North 194 223 9,500 1,462 Climbing Houston Center
Sun 06:41:36 PM 30.6756 -87.6239 360° North 185 213 10,700 1,351 Climbing Jacksonville Center
Sun 06:42:37 PM 30.7314 -87.6361 349° North 190 219 12,000 1,339 Climbing Jacksonville Center
Sun 06:43:37 PM 30.7869 -87.6536 345° North 201 231 13,400 1,350 Climbing Jacksonville Center
Sun 06:44:37 PM 30.8458 -87.6444 North 201 231 14,700 1,350 Climbing Jacksonville Center
Sun 06:45:37 PM 30.9028 -87.6303 12° North 201 231 16,100 1,350 Climbing Jacksonville Center
Sun 06:46:37 PM 30.9619 -87.6114 15° North 201 231 17,400 1,311 Climbing Jacksonville Center
Sun 06:47:36 PM 31.0189 -87.5975 12° North 201 231 18,700 1,267 Climbing Jacksonville Center
Sun 06:49:18 PM 31.1244 -87.5728 11° North 214 246 20,800 1,111 Climbing Atlanta Center
Sun 06:50:18 PM 31.1831 -87.5581 12° North 214 246 21,700 950 Climbing Atlanta Center
Sun 06:51:18 PM 31.2400 -87.5431 13° North 209 241 22,700 850 Climbing Atlanta Center
Sun 06:52:18 PM 31.2989 -87.5283 12° North 209 241 23,400 700 Climbing Atlanta Center
Sun 06:53:18 PM 31.3597 -87.5136 12° North 209 241 24,100 700 Climbing Atlanta Center
Sun 06:54:18 PM 31.4208 -87.4967 13° North 219 252 24,800 350 Climbing Atlanta Center
Sun 06:55:18 PM 31.4817 -87.4794 14° North 232 267 24,800  Level Atlanta Center
Sun 06:56:18 PM 31.5511 -87.4625 12° North 238 274 24,800  Level Atlanta Center
Sun 06:57:18 PM 31.6225 -87.4458 11° North 244 281 24,800  Level Atlanta Center
Sun 06:58:18 PM 31.6939 -87.4264 13° North 250 288 24,800 100 Level Atlanta Center
Sun 06:59:18 PM 31.7675 -87.4097 11° North 255 293 25,000 100 Climbing Atlanta Center
Sun 07:00:18 PM 31.8389 -87.3928 11° North 260 299 25,000  Level Atlanta Center
Sun 07:01:18 PM 31.9083 -87.3733 13° North 260 299 25,000  Level Atlanta Center
Sun 07:02:18 PM 31.9778 -87.3514 15° North 260 299 25,000  Level Atlanta Center
Sun 07:03:18 PM 32.0492 -87.3322 13° North 260 299 25,000  Level Atlanta Center
Sun 07:04:18 PM 32.1228 -87.3128 13° North 260 299 25,000  Level Atlanta Center
Sun 07:05:18 PM 32.1942 -87.2958 11° North 260 299 25,000  Level Atlanta Center
Sun 07:06:18 PM 32.2636 -87.2736 15° North 260 299 25,000  Level Atlanta Center
Sun 07:07:18 PM 32.3372 -87.2567 11° North 260 299 25,000  Level Atlanta Center
Sun 07:08:18 PM 32.4106 -87.2372 13° North 260 299 25,000  Level Atlanta Center
Sun 07:09:18 PM 32.4842 -87.2203 11° North 260 299 25,000  Level Atlanta Center
Sun 07:10:18 PM 32.5536 -87.1981 15° North 260 299 25,000  Level Atlanta Center
Sun 07:11:18 PM 32.6292 -87.1811 11° North 260 299 25,000  Level Atlanta Center
Sun 07:12:18 PM 32.7008 -87.1589 15° North 260 299 25,000  Level Atlanta Center
Sun 07:13:18 PM 32.7742 -87.1417 11° North 255 293 25,000  Level Atlanta Center
Sun 07:14:18 PM 32.8436 -87.1194 15° North 260 299 25,000  Level Atlanta Center
Sun 07:15:18 PM 32.9128 -87.1047 10° North 260 299 25,000  Level Atlanta Center
Sun 07:16:18 PM 32.9906 -87.0825 13° North 260 299 25,000  Level Atlanta Center
Sun 07:17:18 PM 33.0686 -87.0581 15° North 260 299 25,000  Level Atlanta Center
Sun 07:18:18 PM 33.1333 -87.0478 North 260 299 25,000  Level Atlanta Center
Sun 07:19:18 PM 33.2114 -87.0231 15° North 266 306 25,000  Level Atlanta Center
Sun 07:20:18 PM 33.2806 -87.0056 12° North 267 307 25,000  Level Atlanta Center
Sun 07:21:18 PM 33.3606 -86.9811 14° North 262 302 25,000  Level Atlanta Center
Sun 07:22:19 PM 33.4361 -86.9611 12° North 262 302 25,000  Level Atlanta Center
Sun 07:23:18 PM 33.5097 -86.9414 13° North 262 302 25,000  Level Atlanta Center
Sun 07:24:18 PM 33.5831 -86.9214 13° North 262 302 25,000  Level Atlanta Center
Sun 07:25:18 PM 33.6567 -86.9014 13° North 268 308 25,000  Level Atlanta Center
Sun 07:26:18 PM 33.7300 -86.8889 North 268 308 25,000  Level Atlanta Center
Sun 07:27:18 PM 33.8053 -86.8789 North 263 303 25,000  Level Atlanta Center
Sun 07:28:18 PM 33.8786 -86.8711 North 263 303 25,000  Level Atlanta Center
Sun 07:29:18 PM 33.9519 -86.8586 North 258 297 25,000  Level Atlanta Center
Sun 07:30:18 PM 34.0253 -86.8486 North 258 297 25,000  Level Atlanta Center
Sun 07:31:18 PM 34.1006 -86.8358 North 258 297 25,000  Level Atlanta Center
Sun 07:32:18 PM 34.1739 -86.8283 North 258 297 25,000  Level Atlanta Center
Sun 07:33:18 PM 34.2472 -86.8156 North 258 297 25,000  Level Atlanta Center
Sun 07:34:18 PM 34.3225 -86.8056 North 258 297 25,000  Level Atlanta Center
Sun 07:35:18 PM 34.3978 -86.7953 North 258 297 25,000  Level Atlanta Center
Sun 07:36:18 PM 34.4733 -86.7828 North 263 303 25,000  Level Atlanta Center
Sun 07:37:18 PM 34.5486 -86.7750 North 263 303 25,000  Level Atlanta Center
Sun 07:38:18 PM 34.6239 -86.7650 North 268 308 25,000 -150 Level Atlanta Center
Sun 07:39:18 PM 34.6994 -86.7522 North 268 308 24,700 -171 Descending Atlanta Center
Sun 07:44:43 PM 35.1150 -86.6940 North 272 313 23,900 -130 Descending FlightAware ADS-B
Sun 07:45:27 PM 35.1620 -86.6870 North 273 314 23,900 -1,116 Level FlightAware ADS-B
Sun 07:46:09 PM 35.2300 -86.6780 North 309 356 22,300 -905 Descending FlightAware ADS-B
Sun 07:47:33 PM 35.3450 -86.6610 North 286 329 22,000 -229 Descending FlightAware ADS-B
Sun 07:47:54 PM 35.3737 -86.6568 North 287 330 21,900 -1,143 Descending FlightAware ADS-B
Sun 07:48:57 PM 35.4610 -86.6440 North 305 351 20,400 -1,346 Descending FlightAware ADS-B
Sun 07:49:41 PM 35.5240 -86.6350 North 308 354 19,500 -1,286 Descending FlightAware ADS-B
Sun 07:50:21 PM 35.5800 -86.6270 North 305 351 18,600 -1,301 Descending FlightAware ADS-B
Sun 07:51:04 PM 35.6380 -86.6180 North 302 348 17,700 -1,350 Descending FlightAware ADS-B
Sun 07:51:41 PM 35.6910 -86.6100 North 296 341 16,800 -1,301 Descending FlightAware ADS-B
Sun 07:52:27 PM 35.7530 -86.6010 North 292 336 15,900 -989 Descending FlightAware ADS-B
Sun 07:53:12 PM 35.8110 -86.5930 North 285 328 15,300 -1,129 Descending FlightAware ADS-B
Sun 07:53:52 PM 35.8640 -86.5850 North 287 330 14,300 -1,463 Descending FlightAware ADS-B
Sun 07:54:34 PM 35.9190 -86.5760 North 280 322 13,300 -1,429 Descending FlightAware ADS-B
Sun 07:55:16 PM 35.9740 -86.5680 North 278 320 12,300 -1,429 Descending FlightAware ADS-B
Sun 07:55:58 PM 36.0270 -86.5610 North 277 319 11,300 -1,463 Descending FlightAware ADS-B
Sun 07:56:38 PM 36.0790 -86.5530 North 278 320 10,300 -1,235 Descending FlightAware ADS-B
Sun 07:57:06 PM 36.1140 -86.5480 North 269 310 9,900 -462 Descending FlightAware ADS-B
Sun 07:57:30 PM 36.1430 -86.5440 North 255 293 9,900  Level FlightAware ADS-B
Sun 07:58:12 PM 36.1920 -86.5370 North 245 282 9,900 -583 Level FlightAware ADS-B
Sun 07:58:42 PM 36.2250 -86.5320 North 264 304 9,200 -1,655 Descending FlightAware ADS-B
Sun 07:59:10 PM 36.2620 -86.5260 North 278 320 8,300 -1,258 Descending FlightAware ADS-B
Sun 07:59:44 PM 36.3040 -86.5200 North 256 295 7,900 -407 Descending FlightAware ADS-B
Sun 08:00:09 PM 36.3300 -86.5160 North 239 275 7,900 -169 Level FlightAware ADS-B
Sun 08:00:55 PM 36.3790 -86.5080 North 240 276 7,700 -1,583 Descending FlightAware ADS-B
Sun 08:01:21 PM 36.4150 -86.5030 North 260 299 6,000 -1,962 Descending FlightAware ADS-B
Sun 08:01:47 PM 36.4410 -86.4990 North 260 299 6,000 -429 Level FlightAware ADS-B
Sun 08:02:31 PM 36.4839 -86.4933 North 251 289 5,500 2,885 Descending Memphis Center
Sun 08:03:31 PM 36.5544 -86.4822 North 251 289 11,000 5,500 Climbing Memphis Center
Sun 08:05:00 PM 36.5833 -86.4667 15° North  Level FlightAware Approximate
Sun 08:12:00 PM 36.5929 -86.4769 15° North  Level Estimated
Sun 08:13:00 PM 36.5929 -86.4769 15° North  Level Estimated
Sun 08:14:00 PM 36.5929 -86.4769 15° North  Level Estimated
Sun 08:15:00 PM 36.5929 -86.4769 15° North  Level Estimated

Login

Don't have an account? Register now (free) for customized features, flight alerts, and more!